sensor_id;sensor_type;location;lat;lon;timestamp;P1;durP1;ratioP1;P2;durP2;ratioP2
52432;SDS011;38352;53.244;6.594;2024-03-23T00:52:45;24.65;;;6.38;;
52432;SDS011;38352;53.244;6.594;2024-03-23T00:55:11;27.48;;;7.32;;
52432;SDS011;38352;53.244;6.594;2024-03-23T00:57:37;25.42;;;6.80;;
52432;SDS011;38352;53.244;6.594;2024-03-23T01:00:04;23.10;;;6.55;;
52432;SDS011;38352;53.244;6.594;2024-03-23T01:02:31;26.77;;;6.53;;
52432;SDS011;38352;53.244;6.594;2024-03-23T01:04:57;24.77;;;6.57;;
52432;SDS011;38352;53.244;6.594;2024-03-23T01:07:23;23.75;;;6.57;;
52432;SDS011;38352;53.244;6.594;2024-03-23T01:09:49;26.45;;;7.47;;
52432;SDS011;38352;53.244;6.594;2024-03-23T01:12:17;20.83;;;5.97;;
52432;SDS011;38352;53.244;6.594;2024-03-23T01:14:43;20.88;;;6.30;;
52432;SDS011;38352;53.244;6.594;2024-03-23T01:17:09;29.67;;;6.88;;
52432;SDS011;38352;53.244;6.594;2024-03-23T01:19:35;17.92;;;6.80;;
52432;SDS011;38352;53.244;6.594;2024-03-23T01:22:01;28.50;;;8.32;;
52432;SDS011;38352;53.244;6.594;2024-03-23T01:24:27;27.65;;;7.20;;
52432;SDS011;38352;53.244;6.594;2024-03-23T01:26:53;26.60;;;6.70;;
52432;SDS011;38352;53.244;6.594;2024-03-23T01:29:19;25.25;;;5.90;;
52432;SDS011;38352;53.244;6.594;2024-03-23T01:31:45;26.25;;;7.38;;
52432;SDS011;38352;53.244;6.594;2024-03-23T01:34:11;24.05;;;6.45;;
52432;SDS011;38352;53.244;6.594;2024-03-23T01:36:37;18.92;;;5.88;;
52432;SDS011;38352;53.244;6.594;2024-03-23T01:39:04;24.90;;;6.45;;
52432;SDS011;38352;53.244;6.594;2024-03-23T01:41:30;25.08;;;7.15;;
52432;SDS011;38352;53.244;6.594;2024-03-23T01:43:56;18.35;;;6.57;;
52432;SDS011;38352;53.244;6.594;2024-03-23T01:46:22;26.00;;;6.97;;
52432;SDS011;38352;53.244;6.594;2024-03-23T01:48:48;24.83;;;6.20;;
52432;SDS011;38352;53.244;6.594;2024-03-23T01:51:15;22.58;;;6.63;;
52432;SDS011;38352;53.244;6.594;2024-03-23T01:53:41;24.38;;;6.55;;
52432;SDS011;38352;53.244;6.594;2024-03-23T01:56:07;20.73;;;5.78;;
52432;SDS011;38352;53.244;6.594;2024-03-23T01:58:33;19.38;;;5.45;;
52432;SDS011;38352;53.244;6.594;2024-03-23T02:00:59;22.25;;;6.80;;
52432;SDS011;38352;53.244;6.594;2024-03-23T02:03:26;20.50;;;6.45;;
52432;SDS011;38352;53.244;6.594;2024-03-23T02:05:53;23.02;;;6.72;;
52432;SDS011;38352;53.244;6.594;2024-03-23T02:08:20;25.33;;;6.80;;
52432;SDS011;38352;53.244;6.594;2024-03-23T02:10:46;32.38;;;7.25;;
52432;SDS011;38352;53.244;6.594;2024-03-23T02:13:14;24.77;;;6.15;;
52432;SDS011;38352;53.244;6.594;2024-03-23T02:15:40;17.27;;;5.90;;
52432;SDS011;38352;53.244;6.594;2024-03-23T02:18:07;23.15;;;6.82;;
52432;SDS011;38352;53.244;6.594;2024-03-23T02:20:34;21.35;;;5.45;;
52432;SDS011;38352;53.244;6.594;2024-03-23T02:23:00;19.17;;;6.88;;
52432;SDS011;38352;53.244;6.594;2024-03-23T02:25:26;21.98;;;6.15;;
52432;SDS011;38352;53.244;6.594;2024-03-23T02:27:52;24.33;;;5.93;;
52432;SDS011;38352;53.244;6.594;2024-03-23T02:30:19;23.85;;;5.53;;
52432;SDS011;38352;53.244;6.594;2024-03-23T02:32:46;15.57;;;4.97;;
52432;SDS011;38352;53.244;6.594;2024-03-23T02:35:12;22.48;;;5.03;;
52432;SDS011;38352;53.244;6.594;2024-03-23T02:37:38;21.75;;;5.90;;
52432;SDS011;38352;53.244;6.594;2024-03-23T02:40:04;22.80;;;6.20;;
52432;SDS011;38352;53.244;6.594;2024-03-23T02:42:30;26.00;;;5.68;;
52432;SDS011;38352;53.244;6.594;2024-03-23T02:44:56;18.33;;;4.97;;
52432;SDS011;38352;53.244;6.594;2024-03-23T02:47:22;20.35;;;5.55;;
52432;SDS011;38352;53.244;6.594;2024-03-23T02:49:49;18.35;;;4.72;;
52432;SDS011;38352;53.244;6.594;2024-03-23T02:52:15;16.17;;;5.35;;
52432;SDS011;38352;53.244;6.594;2024-03-23T02:54:41;16.60;;;5.20;;
52432;SDS011;38352;53.244;6.594;2024-03-23T02:57:10;20.77;;;7.07;;
52432;SDS011;38352;53.244;6.594;2024-03-23T02:59:36;22.30;;;5.03;;
52432;SDS011;38352;53.244;6.594;2024-03-23T03:02:02;18.73;;;5.35;;
52432;SDS011;38352;53.244;6.594;2024-03-23T03:04:31;14.50;;;4.90;;
52432;SDS011;38352;53.244;6.594;2024-03-23T03:06:58;16.40;;;4.60;;
52432;SDS011;38352;53.244;6.594;2024-03-23T03:09:24;19.23;;;5.57;;
52432;SDS011;38352;53.244;6.594;2024-03-23T03:11:50;19.08;;;4.80;;
52432;SDS011;38352;53.244;6.594;2024-03-23T03:14:16;20.83;;;5.38;;
52432;SDS011;38352;53.244;6.594;2024-03-23T03:16:42;17.48;;;4.38;;
52432;SDS011;38352;53.244;6.594;2024-03-23T03:19:08;21.35;;;4.90;;
52432;SDS011;38352;53.244;6.594;2024-03-23T03:21:35;16.08;;;5.45;;
52432;SDS011;38352;53.244;6.594;2024-03-23T03:24:02;23.20;;;4.80;;
52432;SDS011;38352;53.244;6.594;2024-03-23T03:26:28;11.10;;;4.05;;
52432;SDS011;38352;53.244;6.594;2024-03-23T03:28:54;18.58;;;4.30;;
52432;SDS011;38352;53.244;6.594;2024-03-23T03:31:20;18.60;;;4.38;;
52432;SDS011;38352;53.244;6.594;2024-03-23T03:33:46;17.17;;;4.70;;
52432;SDS011;38352;53.244;6.594;2024-03-23T03:36:12;15.65;;;4.88;;
52432;SDS011;38352;53.244;6.594;2024-03-23T03:38:38;14.25;;;4.40;;
52432;SDS011;38352;53.244;6.594;2024-03-23T03:41:04;16.02;;;4.82;;
52432;SDS011;38352;53.244;6.594;2024-03-23T03:43:31;20.38;;;4.63;;
52432;SDS011;38352;53.244;6.594;2024-03-23T03:45:58;21.30;;;4.63;;
52432;SDS011;38352;53.244;6.594;2024-03-23T03:48:24;20.08;;;4.55;;
52432;SDS011;38352;53.244;6.594;2024-03-23T03:50:51;22.73;;;4.47;;
52432;SDS011;38352;53.244;6.594;2024-03-23T03:53:17;16.52;;;4.25;;
52432;SDS011;38352;53.244;6.594;2024-03-23T03:55:44;14.35;;;4.10;;
52432;SDS011;38352;53.244;6.594;2024-03-23T03:58:10;18.75;;;5.07;;
52432;SDS011;38352;53.244;6.594;2024-03-23T04:00:36;19.40;;;4.53;;
52432;SDS011;38352;53.244;6.594;2024-03-23T04:03:02;22.02;;;4.50;;
52432;SDS011;38352;53.244;6.594;2024-03-23T04:05:28;18.25;;;4.18;;
52432;SDS011;38352;53.244;6.594;2024-03-23T04:07:54;12.80;;;4.43;;
52432;SDS011;38352;53.244;6.594;2024-03-23T04:10:20;15.30;;;4.35;;
52432;SDS011;38352;53.244;6.594;2024-03-23T04:12:47;16.63;;;4.13;;
52432;SDS011;38352;53.244;6.594;2024-03-23T04:15:13;18.55;;;4.35;;
52432;SDS011;38352;53.244;6.594;2024-03-23T04:17:39;12.52;;;3.65;;
52432;SDS011;38352;53.244;6.594;2024-03-23T04:20:07;17.98;;;4.60;;
52432;SDS011;38352;53.244;6.594;2024-03-23T04:22:39;14.50;;;4.82;;
52432;SDS011;38352;53.244;6.594;2024-03-23T04:25:05;19.02;;;4.35;;
52432;SDS011;38352;53.244;6.594;2024-03-23T04:27:32;22.60;;;4.75;;
52432;SDS011;38352;53.244;6.594;2024-03-23T04:29:58;14.63;;;4.10;;
52432;SDS011;38352;53.244;6.594;2024-03-23T04:32:29;20.77;;;4.57;;
52432;SDS011;38352;53.244;6.594;2024-03-23T04:34:56;12.95;;;3.88;;
52432;SDS011;38352;53.244;6.594;2024-03-23T04:37:22;17.40;;;4.28;;
52432;SDS011;38352;53.244;6.594;2024-03-23T04:39:48;18.02;;;4.75;;
52432;SDS011;38352;53.244;6.594;2024-03-23T04:42:17;18.08;;;4.28;;
52432;SDS011;38352;53.244;6.594;2024-03-23T04:44:43;20.27;;;4.43;;
52432;SDS011;38352;53.244;6.594;2024-03-23T04:47:10;16.70;;;4.35;;
52432;SDS011;38352;53.244;6.594;2024-03-23T04:49:36;20.65;;;3.40;;
52432;SDS011;38352;53.244;6.594;2024-03-23T04:52:05;18.75;;;5.22;;
52432;SDS011;38352;53.244;6.594;2024-03-23T04:54:31;19.50;;;4.40;;
52432;SDS011;38352;53.244;6.594;2024-03-23T04:56:57;14.60;;;3.85;;
52432;SDS011;38352;53.244;6.594;2024-03-23T04:59:23;15.95;;;4.13;;
52432;SDS011;38352;53.244;6.594;2024-03-23T05:01:49;16.52;;;3.63;;
52432;SDS011;38352;53.244;6.594;2024-03-23T05:04:15;19.45;;;4.38;;
52432;SDS011;38352;53.244;6.594;2024-03-23T05:06:41;15.65;;;4.50;;
52432;SDS011;38352;53.244;6.594;2024-03-23T05:09:08;15.50;;;3.95;;
52432;SDS011;38352;53.244;6.594;2024-03-23T05:11:40;12.85;;;4.28;;
52432;SDS011;38352;53.244;6.594;2024-03-23T05:14:10;13.38;;;3.60;;
52432;SDS011;38352;53.244;6.594;2024-03-23T05:16:36;17.05;;;3.88;;
52432;SDS011;38352;53.244;6.594;2024-03-23T05:19:02;14.48;;;4.03;;
52432;SDS011;38352;53.244;6.594;2024-03-23T05:21:28;11.35;;;3.83;;
52432;SDS011;38352;53.244;6.594;2024-03-23T05:23:54;14.32;;;3.90;;
52432;SDS011;38352;53.244;6.594;2024-03-23T05:26:21;15.10;;;4.25;;
52432;SDS011;38352;53.244;6.594;2024-03-23T05:28:48;15.07;;;3.45;;
52432;SDS011;38352;53.244;6.594;2024-03-23T05:31:23;20.40;;;4.10;;
52432;SDS011;38352;53.244;6.594;2024-03-23T05:33:49;12.00;;;3.42;;
52432;SDS011;38352;53.244;6.594;2024-03-23T05:36:17;13.05;;;3.50;;
52432;SDS011;38352;53.244;6.594;2024-03-23T05:38:43;18.30;;;4.43;;
52432;SDS011;38352;53.244;6.594;2024-03-23T05:41:09;15.35;;;3.85;;
52432;SDS011;38352;53.244;6.594;2024-03-23T05:43:35;13.15;;;3.55;;
52432;SDS011;38352;53.244;6.594;2024-03-23T05:46:01;14.50;;;3.72;;
52432;SDS011;38352;53.244;6.594;2024-03-23T05:48:28;20.90;;;3.67;;
52432;SDS011;38352;53.244;6.594;2024-03-23T05:50:55;14.90;;;3.70;;
52432;SDS011;38352;53.244;6.594;2024-03-23T05:53:22;11.73;;;3.83;;
52432;SDS011;38352;53.244;6.594;2024-03-23T05:55:48;23.92;;;4.15;;
52432;SDS011;38352;53.244;6.594;2024-03-23T05:58:14;16.27;;;4.18;;
52432;SDS011;38352;53.244;6.594;2024-03-23T06:00:41;17.70;;;3.60;;
52432;SDS011;38352;53.244;6.594;2024-03-23T06:03:07;9.98;;;3.03;;
52432;SDS011;38352;53.244;6.594;2024-03-23T06:05:33;11.63;;;3.15;;
52432;SDS011;38352;53.244;6.594;2024-03-23T06:07:59;12.15;;;3.45;;
52432;SDS011;38352;53.244;6.594;2024-03-23T06:10:25;14.55;;;3.13;;
52432;SDS011;38352;53.244;6.594;2024-03-23T06:12:51;14.40;;;3.80;;
52432;SDS011;38352;53.244;6.594;2024-03-23T06:15:21;17.90;;;3.65;;
52432;SDS011;38352;53.244;6.594;2024-03-23T06:17:47;9.77;;;2.58;;
52432;SDS011;38352;53.244;6.594;2024-03-23T06:20:13;12.48;;;3.05;;
52432;SDS011;38352;53.244;6.594;2024-03-23T06:22:40;14.45;;;3.08;;
52432;SDS011;38352;53.244;6.594;2024-03-23T06:25:06;10.05;;;2.60;;
52432;SDS011;38352;53.244;6.594;2024-03-23T06:27:32;14.40;;;2.80;;
52432;SDS011;38352;53.244;6.594;2024-03-23T06:29:59;12.00;;;3.20;;
52432;SDS011;38352;53.244;6.594;2024-03-23T06:32:25;9.60;;;3.58;;
52432;SDS011;38352;53.244;6.594;2024-03-23T06:34:51;11.80;;;2.55;;
52432;SDS011;38352;53.244;6.594;2024-03-23T06:37:17;16.17;;;3.50;;
52432;SDS011;38352;53.244;6.594;2024-03-23T06:39:45;15.10;;;2.60;;
52432;SDS011;38352;53.244;6.594;2024-03-23T06:42:11;12.15;;;3.15;;
52432;SDS011;38352;53.244;6.594;2024-03-23T06:44:38;13.00;;;2.70;;
52432;SDS011;38352;53.244;6.594;2024-03-23T06:47:04;12.73;;;2.70;;
52432;SDS011;38352;53.244;6.594;2024-03-23T06:49:30;9.05;;;2.33;;
52432;SDS011;38352;53.244;6.594;2024-03-23T06:51:57;10.48;;;2.78;;
52432;SDS011;38352;53.244;6.594;2024-03-23T06:54:24;13.55;;;2.35;;
52432;SDS011;38352;53.244;6.594;2024-03-23T06:56:50;12.88;;;2.30;;
52432;SDS011;38352;53.244;6.594;2024-03-23T06:59:16;10.05;;;2.20;;
52432;SDS011;38352;53.244;6.594;2024-03-23T07:01:42;10.57;;;2.70;;
52432;SDS011;38352;53.244;6.594;2024-03-23T07:04:08;11.30;;;2.42;;
52432;SDS011;38352;53.244;6.594;2024-03-23T07:06:42;9.02;;;2.30;;
52432;SDS011;38352;53.244;6.594;2024-03-23T07:09:09;10.88;;;2.20;;
52432;SDS011;38352;53.244;6.594;2024-03-23T07:11:35;17.48;;;2.97;;
52432;SDS011;38352;53.244;6.594;2024-03-23T07:14:01;15.02;;;2.72;;
52432;SDS011;38352;53.244;6.594;2024-03-23T07:16:28;8.65;;;2.45;;
52432;SDS011;38352;53.244;6.594;2024-03-23T07:18:54;7.07;;;2.42;;
52432;SDS011;38352;53.244;6.594;2024-03-23T07:21:20;7.88;;;2.70;;
52432;SDS011;38352;53.244;6.594;2024-03-23T07:23:47;8.18;;;2.38;;
52432;SDS011;38352;53.244;6.594;2024-03-23T07:26:13;7.43;;;2.33;;
52432;SDS011;38352;53.244;6.594;2024-03-23T07:28:39;8.85;;;2.17;;
52432;SDS011;38352;53.244;6.594;2024-03-23T07:31:10;11.30;;;3.38;;
52432;SDS011;38352;53.244;6.594;2024-03-23T07:33:38;9.60;;;2.40;;
52432;SDS011;38352;53.244;6.594;2024-03-23T07:36:07;8.38;;;2.20;;
52432;SDS011;38352;53.244;6.594;2024-03-23T07:38:33;11.70;;;2.75;;
52432;SDS011;38352;53.244;6.594;2024-03-23T07:41:06;8.00;;;2.42;;
52432;SDS011;38352;53.244;6.594;2024-03-23T07:43:32;13.90;;;2.72;;
52432;SDS011;38352;53.244;6.594;2024-03-23T07:45:58;8.07;;;2.38;;
52432;SDS011;38352;53.244;6.594;2024-03-23T07:48:25;10.45;;;3.28;;
52432;SDS011;38352;53.244;6.594;2024-03-23T07:53:30;12.15;;;2.80;;
52432;SDS011;38352;53.244;6.594;2024-03-23T07:58:22;7.72;;;2.05;;
52432;SDS011;38352;53.244;6.594;2024-03-23T08:00:48;10.32;;;1.83;;
52432;SDS011;38352;53.244;6.594;2024-03-23T08:03:14;4.30;;;1.80;;
52432;SDS011;38352;53.244;6.594;2024-03-23T08:05:40;9.02;;;2.42;;
52432;SDS011;38352;53.244;6.594;2024-03-23T08:08:07;9.15;;;2.47;;
52432;SDS011;38352;53.244;6.594;2024-03-23T08:10:33;7.50;;;2.30;;
52432;SDS011;38352;53.244;6.594;2024-03-23T08:12:59;7.45;;;2.08;;
52432;SDS011;38352;53.244;6.594;2024-03-23T08:15:25;6.70;;;2.65;;
52432;SDS011;38352;53.244;6.594;2024-03-23T08:17:51;6.32;;;2.83;;
52432;SDS011;38352;53.244;6.594;2024-03-23T08:20:17;9.57;;;2.40;;
52432;SDS011;38352;53.244;6.594;2024-03-23T08:22:43;5.47;;;2.05;;
52432;SDS011;38352;53.244;6.594;2024-03-23T08:25:09;8.27;;;2.80;;
52432;SDS011;38352;53.244;6.594;2024-03-23T08:27:36;8.88;;;2.10;;
52432;SDS011;38352;53.244;6.594;2024-03-23T08:30:02;9.82;;;2.55;;
52432;SDS011;38352;53.244;6.594;2024-03-23T08:32:28;7.53;;;2.35;;
52432;SDS011;38352;53.244;6.594;2024-03-23T08:34:54;6.55;;;2.03;;
52432;SDS011;38352;53.244;6.594;2024-03-23T08:37:20;6.65;;;2.05;;
52432;SDS011;38352;53.244;6.594;2024-03-23T08:39:46;7.85;;;2.42;;
52432;SDS011;38352;53.244;6.594;2024-03-23T08:42:12;6.32;;;2.28;;
52432;SDS011;38352;53.244;6.594;2024-03-23T08:44:38;8.80;;;2.33;;
52432;SDS011;38352;53.244;6.594;2024-03-23T08:47:05;8.70;;;2.67;;
52432;SDS011;38352;53.244;6.594;2024-03-23T08:49:31;10.18;;;2.60;;
52432;SDS011;38352;53.244;6.594;2024-03-23T08:51:58;9.32;;;2.70;;
52432;SDS011;38352;53.244;6.594;2024-03-23T08:54:24;8.40;;;2.45;;
52432;SDS011;38352;53.244;6.594;2024-03-23T08:56:52;10.55;;;2.50;;
52432;SDS011;38352;53.244;6.594;2024-03-23T08:59:18;7.85;;;2.67;;
52432;SDS011;38352;53.244;6.594;2024-03-23T09:01:45;10.27;;;3.20;;
52432;SDS011;38352;53.244;6.594;2024-03-23T09:04:11;9.88;;;2.78;;
52432;SDS011;38352;53.244;6.594;2024-03-23T09:06:37;15.13;;;3.13;;
52432;SDS011;38352;53.244;6.594;2024-03-23T09:09:03;12.88;;;2.97;;
52432;SDS011;38352;53.244;6.594;2024-03-23T09:11:29;12.30;;;2.92;;
52432;SDS011;38352;53.244;6.594;2024-03-23T09:13:55;13.20;;;2.67;;
52432;SDS011;38352;53.244;6.594;2024-03-23T09:16:21;9.55;;;3.25;;
52432;SDS011;38352;53.244;6.594;2024-03-23T09:18:47;12.02;;;3.67;;
52432;SDS011;38352;53.244;6.594;2024-03-23T09:21:13;10.18;;;2.90;;
52432;SDS011;38352;53.244;6.594;2024-03-23T09:23:43;12.15;;;3.30;;
52432;SDS011;38352;53.244;6.594;2024-03-23T09:26:09;8.38;;;2.70;;
52432;SDS011;38352;53.244;6.594;2024-03-23T09:28:35;6.97;;;2.20;;
52432;SDS011;38352;53.244;6.594;2024-03-23T09:31:04;8.32;;;2.28;;
52432;SDS011;38352;53.244;6.594;2024-03-23T09:33:31;12.88;;;2.47;;
52432;SDS011;38352;53.244;6.594;2024-03-23T09:35:57;13.52;;;2.97;;
52432;SDS011;38352;53.244;6.594;2024-03-23T09:38:23;16.23;;;3.50;;
52432;SDS011;38352;53.244;6.594;2024-03-23T09:40:50;11.90;;;3.13;;
52432;SDS011;38352;53.244;6.594;2024-03-23T09:43:18;12.65;;;3.20;;
52432;SDS011;38352;53.244;6.594;2024-03-23T09:45:44;11.52;;;3.40;;
52432;SDS011;38352;53.244;6.594;2024-03-23T09:48:11;13.63;;;3.53;;
52432;SDS011;38352;53.244;6.594;2024-03-23T09:50:41;8.48;;;2.13;;
52432;SDS011;38352;53.244;6.594;2024-03-23T09:53:07;9.73;;;3.45;;
52432;SDS011;38352;53.244;6.594;2024-03-23T09:55:34;13.18;;;2.70;;
52432;SDS011;38352;53.244;6.594;2024-03-23T09:58:03;9.18;;;3.65;;
52432;SDS011;38352;53.244;6.594;2024-03-23T10:00:33;9.80;;;2.60;;
52432;SDS011;38352;53.244;6.594;2024-03-23T10:03:00;8.48;;;1.80;;
52432;SDS011;38352;53.244;6.594;2024-03-23T10:05:30;6.82;;;2.00;;
52432;SDS011;38352;53.244;6.594;2024-03-23T10:10:41;4.68;;;1.98;;
52432;SDS011;38352;53.244;6.594;2024-03-23T10:13:07;5.38;;;1.48;;
52432;SDS011;38352;53.244;6.594;2024-03-23T10:15:33;7.63;;;1.55;;
52432;SDS011;38352;53.244;6.594;2024-03-23T10:18:06;8.85;;;2.53;;
52432;SDS011;38352;53.244;6.594;2024-03-23T10:20:43;9.48;;;2.20;;
52432;SDS011;38352;53.244;6.594;2024-03-23T10:23:18;4.18;;;1.52;;
52432;SDS011;38352;53.244;6.594;2024-03-23T10:25:44;6.05;;;2.20;;
52432;SDS011;38352;53.244;6.594;2024-03-23T10:28:13;9.45;;;3.10;;
52432;SDS011;38352;53.244;6.594;2024-03-23T10:30:39;10.15;;;3.38;;
52432;SDS011;38352;53.244;6.594;2024-03-23T10:33:11;10.20;;;2.78;;
52432;SDS011;38352;53.244;6.594;2024-03-23T10:35:38;12.20;;;2.72;;
52432;SDS011;38352;53.244;6.594;2024-03-23T10:38:05;7.13;;;2.33;;
52432;SDS011;38352;53.244;6.594;2024-03-23T10:40:34;12.93;;;3.13;;
52432;SDS011;38352;53.244;6.594;2024-03-23T10:43:01;15.27;;;2.42;;
52432;SDS011;38352;53.244;6.594;2024-03-23T10:45:28;9.52;;;2.70;;
52432;SDS011;38352;53.244;6.594;2024-03-23T10:47:54;12.07;;;2.92;;
52432;SDS011;38352;53.244;6.594;2024-03-23T10:50:21;14.70;;;3.50;;
52432;SDS011;38352;53.244;6.594;2024-03-23T10:52:47;6.90;;;2.38;;
52432;SDS011;38352;53.244;6.594;2024-03-23T10:55:17;11.82;;;2.42;;
52432;SDS011;38352;53.244;6.594;2024-03-23T10:57:45;9.02;;;3.33;;
52432;SDS011;38352;53.244;6.594;2024-03-23T11:00:13;9.23;;;2.17;;
52432;SDS011;38352;53.244;6.594;2024-03-23T11:02:39;9.50;;;2.40;;
52432;SDS011;38352;53.244;6.594;2024-03-23T11:10:29;8.13;;;2.15;;
52432;SDS011;38352;53.244;6.594;2024-03-23T11:13:03;6.57;;;1.33;;
52432;SDS011;38352;53.244;6.594;2024-03-23T11:15:41;8.70;;;1.83;;
52432;SDS011;38352;53.244;6.594;2024-03-23T11:18:07;6.40;;;1.80;;
52432;SDS011;38352;53.244;6.594;2024-03-23T11:20:37;8.48;;;2.00;;
52432;SDS011;38352;53.244;6.594;2024-03-23T11:23:03;6.68;;;1.88;;
52432;SDS011;38352;53.244;6.594;2024-03-23T11:25:30;9.85;;;2.63;;
52432;SDS011;38352;53.244;6.594;2024-03-23T11:28:17;8.15;;;1.65;;
52432;SDS011;38352;53.244;6.594;2024-03-23T11:30:42;7.75;;;1.83;;
52432;SDS011;38352;53.244;6.594;2024-03-23T11:33:08;9.57;;;1.83;;
52432;SDS011;38352;53.244;6.594;2024-03-23T11:35:38;5.10;;;1.60;;
52432;SDS011;38352;53.244;6.594;2024-03-23T11:40:32;8.82;;;2.53;;
52432;SDS011;38352;53.244;6.594;2024-03-23T11:42:59;9.32;;;2.28;;
52432;SDS011;38352;53.244;6.594;2024-03-23T11:45:25;9.35;;;1.83;;
52432;SDS011;38352;53.244;6.594;2024-03-23T11:48:11;11.10;;;2.38;;
52432;SDS011;38352;53.244;6.594;2024-03-23T11:50:44;13.60;;;3.17;;
52432;SDS011;38352;53.244;6.594;2024-03-23T11:53:12;10.82;;;2.75;;
52432;SDS011;38352;53.244;6.594;2024-03-23T11:55:48;12.93;;;2.70;;
52432;SDS011;38352;53.244;6.594;2024-03-23T11:58:15;12.40;;;3.13;;
52432;SDS011;38352;53.244;6.594;2024-03-23T12:00:41;12.23;;;2.78;;
52432;SDS011;38352;53.244;6.594;2024-03-23T12:03:08;7.28;;;2.30;;
52432;SDS011;38352;53.244;6.594;2024-03-23T12:05:35;12.32;;;2.97;;
52432;SDS011;38352;53.244;6.594;2024-03-23T12:10:53;9.73;;;2.97;;
52432;SDS011;38352;53.244;6.594;2024-03-23T12:13:20;11.98;;;2.35;;
52432;SDS011;38352;53.244;6.594;2024-03-23T12:15:47;9.55;;;2.42;;
52432;SDS011;38352;53.244;6.594;2024-03-23T12:18:13;9.48;;;1.90;;
52432;SDS011;38352;53.244;6.594;2024-03-23T12:20:40;7.43;;;1.73;;
52432;SDS011;38352;53.244;6.594;2024-03-23T12:23:06;8.20;;;2.42;;
52432;SDS011;38352;53.244;6.594;2024-03-23T12:25:32;14.02;;;3.53;;
52432;SDS011;38352;53.244;6.594;2024-03-23T12:27:59;8.57;;;2.45;;
52432;SDS011;38352;53.244;6.594;2024-03-23T12:30:25;10.50;;;2.45;;
52432;SDS011;38352;53.244;6.594;2024-03-23T12:32:51;9.30;;;2.00;;
52432;SDS011;38352;53.244;6.594;2024-03-23T12:35:17;6.80;;;1.90;;
52432;SDS011;38352;53.244;6.594;2024-03-23T12:37:43;10.32;;;1.90;;
52432;SDS011;38352;53.244;6.594;2024-03-23T12:40:10;5.57;;;1.55;;
52432;SDS011;38352;53.244;6.594;2024-03-23T12:42:36;7.70;;;2.22;;
52432;SDS011;38352;53.244;6.594;2024-03-23T12:45:02;6.03;;;1.92;;
52432;SDS011;38352;53.244;6.594;2024-03-23T12:47:30;9.18;;;2.47;;
52432;SDS011;38352;53.244;6.594;2024-03-23T12:49:56;5.55;;;1.67;;
52432;SDS011;38352;53.244;6.594;2024-03-23T12:52:22;7.32;;;2.17;;
52432;SDS011;38352;53.244;6.594;2024-03-23T12:54:53;7.82;;;1.90;;
52432;SDS011;38352;53.244;6.594;2024-03-23T12:57:21;9.20;;;1.95;;
52432;SDS011;38352;53.244;6.594;2024-03-23T12:59:47;5.30;;;1.20;;
52432;SDS011;38352;53.244;6.594;2024-03-23T13:02:16;5.55;;;1.65;;
52432;SDS011;38352;53.244;6.594;2024-03-23T13:04:42;6.53;;;1.65;;
52432;SDS011;38352;53.244;6.594;2024-03-23T13:07:08;4.60;;;1.40;;
52432;SDS011;38352;53.244;6.594;2024-03-23T13:09:34;6.63;;;1.70;;
52432;SDS011;38352;53.244;6.594;2024-03-23T13:12:00;7.97;;;1.60;;
52432;SDS011;38352;53.244;6.594;2024-03-23T13:14:27;7.35;;;1.80;;
52432;SDS011;38352;53.244;6.594;2024-03-23T13:16:53;7.97;;;1.83;;
52432;SDS011;38352;53.244;6.594;2024-03-23T13:19:19;12.52;;;3.10;;
52432;SDS011;38352;53.244;6.594;2024-03-23T13:21:45;9.15;;;2.70;;
52432;SDS011;38352;53.244;6.594;2024-03-23T13:24:12;10.45;;;2.25;;
52432;SDS011;38352;53.244;6.594;2024-03-23T13:26:38;7.80;;;2.17;;
52432;SDS011;38352;53.244;6.594;2024-03-23T13:29:04;9.00;;;2.20;;
52432;SDS011;38352;53.244;6.594;2024-03-23T13:31:30;12.93;;;2.65;;
52432;SDS011;38352;53.244;6.594;2024-03-23T13:33:56;9.27;;;2.30;;
52432;SDS011;38352;53.244;6.594;2024-03-23T13:36:22;9.00;;;2.38;;
52432;SDS011;38352;53.244;6.594;2024-03-23T13:38:49;8.63;;;2.25;;
52432;SDS011;38352;53.244;6.594;2024-03-23T13:41:15;8.52;;;2.13;;
52432;SDS011;38352;53.244;6.594;2024-03-23T13:43:42;7.80;;;2.20;;
52432;SDS011;38352;53.244;6.594;2024-03-23T13:46:08;4.63;;;1.10;;
52432;SDS011;38352;53.244;6.594;2024-03-23T13:48:34;4.75;;;1.38;;
52432;SDS011;38352;53.244;6.594;2024-03-23T13:51:00;8.68;;;1.80;;
52432;SDS011;38352;53.244;6.594;2024-03-23T13:53:26;9.43;;;2.17;;
52432;SDS011;38352;53.244;6.594;2024-03-23T13:55:52;9.90;;;2.92;;
52432;SDS011;38352;53.244;6.594;2024-03-23T13:58:19;6.28;;;1.52;;
52432;SDS011;38352;53.244;6.594;2024-03-23T14:00:45;10.45;;;2.33;;
52432;SDS011;38352;53.244;6.594;2024-03-23T14:03:12;7.85;;;2.10;;
52432;SDS011;38352;53.244;6.594;2024-03-23T14:05:38;6.63;;;1.80;;
52432;SDS011;38352;53.244;6.594;2024-03-23T14:08:07;8.80;;;1.60;;
52432;SDS011;38352;53.244;6.594;2024-03-23T14:10:33;6.20;;;1.67;;
52432;SDS011;38352;53.244;6.594;2024-03-23T14:13:01;4.65;;;1.48;;
52432;SDS011;38352;53.244;6.594;2024-03-23T14:15:27;10.23;;;2.58;;
52432;SDS011;38352;53.244;6.594;2024-03-23T14:17:53;8.68;;;2.35;;
52432;SDS011;38352;53.244;6.594;2024-03-23T14:20:22;11.27;;;2.15;;
52432;SDS011;38352;53.244;6.594;2024-03-23T14:22:49;7.10;;;1.65;;
52432;SDS011;38352;53.244;6.594;2024-03-23T14:25:15;7.60;;;1.38;;
52432;SDS011;38352;53.244;6.594;2024-03-23T14:27:43;5.45;;;1.50;;
52432;SDS011;38352;53.244;6.594;2024-03-23T14:30:09;7.43;;;2.30;;
52432;SDS011;38352;53.244;6.594;2024-03-23T14:32:36;6.47;;;1.70;;
52432;SDS011;38352;53.244;6.594;2024-03-23T14:35:02;8.65;;;1.83;;
52432;SDS011;38352;53.244;6.594;2024-03-23T14:37:29;10.70;;;1.95;;
52432;SDS011;38352;53.244;6.594;2024-03-23T14:39:55;9.90;;;2.33;;
52432;SDS011;38352;53.244;6.594;2024-03-23T14:42:22;9.68;;;2.33;;
52432;SDS011;38352;53.244;6.594;2024-03-23T14:44:49;7.75;;;2.47;;
52432;SDS011;38352;53.244;6.594;2024-03-23T14:47:15;10.05;;;2.67;;
52432;SDS011;38352;53.244;6.594;2024-03-23T14:49:42;7.30;;;1.88;;
52432;SDS011;38352;53.244;6.594;2024-03-23T14:52:12;9.50;;;2.10;;
52432;SDS011;38352;53.244;6.594;2024-03-23T14:54:38;11.38;;;2.22;;
52432;SDS011;38352;53.244;6.594;2024-03-23T14:57:04;9.43;;;1.92;;
52432;SDS011;38352;53.244;6.594;2024-03-23T14:59:34;8.32;;;2.55;;
52432;SDS011;38352;53.244;6.594;2024-03-23T15:02:00;10.02;;;2.40;;
52432;SDS011;38352;53.244;6.594;2024-03-23T15:04:26;10.60;;;2.17;;
52432;SDS011;38352;53.244;6.594;2024-03-23T15:06:53;8.98;;;2.22;;
52432;SDS011;38352;53.244;6.594;2024-03-23T15:09:19;10.35;;;3.10;;
52432;SDS011;38352;53.244;6.594;2024-03-23T15:11:45;7.03;;;2.20;;
52432;SDS011;38352;53.244;6.594;2024-03-23T15:14:11;6.57;;;2.10;;
52432;SDS011;38352;53.244;6.594;2024-03-23T15:16:37;7.40;;;1.70;;
52432;SDS011;38352;53.244;6.594;2024-03-23T15:19:03;10.02;;;1.90;;
52432;SDS011;38352;53.244;6.594;2024-03-23T15:21:31;5.65;;;1.55;;
52432;SDS011;38352;53.244;6.594;2024-03-23T15:23:57;9.23;;;2.25;;
52432;SDS011;38352;53.244;6.594;2024-03-23T15:26:23;4.88;;;1.40;;
52432;SDS011;38352;53.244;6.594;2024-03-23T15:28:50;6.63;;;2.05;;
52432;SDS011;38352;53.244;6.594;2024-03-23T15:31:22;9.13;;;2.53;;
52432;SDS011;38352;53.244;6.594;2024-03-23T15:33:48;12.32;;;2.20;;
52432;SDS011;38352;53.244;6.594;2024-03-23T15:36:14;7.82;;;1.63;;
52432;SDS011;38352;53.244;6.594;2024-03-23T15:38:40;10.65;;;2.25;;
52432;SDS011;38352;53.244;6.594;2024-03-23T15:41:06;6.82;;;1.70;;
52432;SDS011;38352;53.244;6.594;2024-03-23T15:43:33;10.15;;;2.10;;
52432;SDS011;38352;53.244;6.594;2024-03-23T15:48:26;12.63;;;2.80;;
52432;SDS011;38352;53.244;6.594;2024-03-23T15:50:56;10.40;;;1.92;;